KMYR/MYR METAR and TAF weather

Enter ICAO airport designator
Station Type Date Time Source
KMYR METAR 2021/08/01 15:56 UTC NOAA

KMYR 011556Z 17009KT 10SM CLR 31/27 A2989 RMK AO2 SLP121 T03060267


Station Type Date Time Source
KMYR Decoded METAR 2021/08/01 15:56 UTC NOAA

Myrtle Beach Air Force Base, SC, United States (KMYR) 33-41N 078-56W 8M
Aug 01, 2021 - 11:56 AM EDT / 2021.08.01 1556 UTC
Wind: from the S (170 degrees) at 10 MPH (9 KT):0
Visibility: 10 mile(s):0
Sky conditions: clear
Temperature: 87.1 F (30.6 C)
Heat index: 102.7 F (39.3 C):1
Dew Point: 80.1 F (26.7 C)
Relative Humidity: 79%
Pressure (altimeter): 29.89 in. Hg (1012 hPa)
ob: KMYR 011556Z 17009KT 10SM CLR 31/27 A2989 RMK AO2 SLP121 T03060267
cycle: 16

Station Type Date Time Source
KMYR TAF 2021/08/01 12:22 UTC NOAA

TAF KMYR 011120Z 0112/0212 25005KT P6SM VCTS FEW050CB
FM011300 24009KT P6SM SCT025 BKN250
FM011800 22013G18KT P6SM VCTS SCT035CB BKN045
FM020200 24011KT P6SM VCTS SCT025CB BKN050 OVC250
FM020400 25008KT P6SM BKN080

Example: see airport list